createdAt,value
2023-07-12T00:04:57.398Z,1013.16
2023-07-12T00:09:58.422Z,1012.93
2023-07-12T00:14:59.528Z,1012.84
2023-07-12T00:20:01.654Z,1012.95
2023-07-12T00:25:00.698Z,1012.98
2023-07-12T00:30:01.719Z,1012.95
2023-07-12T00:35:02.782Z,1013.14
2023-07-12T00:40:03.932Z,1012.81
2023-07-12T00:45:05.005Z,1013.13
2023-07-12T00:50:07.034Z,1012.92
2023-07-12T00:55:08.073Z,1012.91
2023-07-12T01:00:07.172Z,1013.07
2023-07-12T01:05:09.237Z,1012.92
2023-07-12T01:10:08.319Z,1012.91
2023-07-12T01:15:09.363Z,1012.79
2023-07-12T01:20:10.395Z,1012.93
2023-07-12T01:25:11.468Z,1012.76
2023-07-12T01:30:13.491Z,1012.47
2023-07-12T01:35:13.581Z,1012.49
2023-07-12T01:40:14.737Z,1012.36
2023-07-12T01:45:14.799Z,1012.32
2023-07-12T01:50:13.824Z,1012.15
2023-07-12T01:55:14.892Z,1011.99
2023-07-12T02:00:14.958Z,1012.03
2023-07-12T02:05:17.007Z,1012.07
2023-07-12T02:10:16.034Z,1012.02
2023-07-12T02:15:17.077Z,1011.92
2023-07-12T02:20:18.474Z,1011.62
2023-07-12T02:25:21.550Z,1011.87
2023-07-12T02:30:20.606Z,1011.78
2023-07-12T02:35:23.636Z,1011.61
2023-07-12T02:40:22.685Z,1011.56
2023-07-12T02:45:23.710Z,1011.52
2023-07-12T02:50:27.783Z,1011.39
2023-07-12T02:55:25.799Z,1011.36
2023-07-12T03:00:24.836Z,1011.15
2023-07-12T03:05:25.921Z,1011.07
2023-07-12T03:10:26.931Z,1011.17
2023-07-12T03:15:28.971Z,1010.98
2023-07-12T03:20:28.058Z,1011.06
2023-07-12T03:25:35.224Z,1011.03
2023-07-12T03:30:29.336Z,1010.97
2023-07-12T03:35:30.360Z,1011.13
2023-07-12T03:40:31.478Z,1011.28
2023-07-12T03:45:32.543Z,1011.19
2023-07-12T03:50:34.560Z,1011.30
2023-07-12T03:55:33.622Z,1011.42
2023-07-12T04:00:35.763Z,1011.29
2023-07-12T04:05:35.763Z,1011.48
2023-07-12T04:10:35.819Z,1011.80
2023-07-12T04:15:34.885Z,1011.77
2023-07-12T04:20:36.978Z,1011.29
2023-07-12T04:25:36.970Z,1011.56
2023-07-12T04:30:38.070Z,1011.71
2023-07-12T04:35:37.104Z,1012.09
2023-07-12T04:40:38.206Z,1012.48
2023-07-12T04:45:39.253Z,1012.73
2023-07-12T04:50:40.356Z,1012.67
2023-07-12T04:55:42.441Z,1013.07
2023-07-12T05:00:41.584Z,1014.12
2023-07-12T05:05:41.611Z,1014.37
2023-07-12T05:10:42.685Z,1014.17
2023-07-12T05:15:43.737Z,1014.04
2023-07-12T05:20:44.756Z,1013.89
2023-07-12T05:25:47.828Z,1014.00
2023-07-12T05:30:47.913Z,1013.54
2023-07-12T05:35:47.931Z,1013.70
2023-07-12T05:40:46.986Z,1013.22
2023-07-12T05:45:50.058Z,1013.26
2023-07-12T05:50:49.102Z,1013.54
2023-07-12T05:55:50.127Z,1013.41
2023-07-12T06:00:51.193Z,1012.90
2023-07-12T06:05:53.236Z,1012.93
2023-07-12T06:10:52.275Z,1012.91
2023-07-12T06:15:52.379Z,1012.44
2023-07-12T06:20:54.451Z,1012.67
2023-07-12T06:25:54.485Z,1012.53
2023-07-12T06:30:54.672Z,1012.66
2023-07-12T06:35:53.767Z,1012.47
2023-07-12T06:40:54.827Z,1012.45
2023-07-12T06:45:56.959Z,1012.66
2023-07-12T06:50:55.999Z,1012.63
2023-07-12T06:55:57.047Z,1012.63
2023-07-12T07:00:58.129Z,1012.54
2023-07-12T07:06:00.267Z,1012.48
2023-07-12T07:11:01.401Z,1012.37
2023-07-12T07:16:00.567Z,1012.44
2023-07-12T07:21:02.599Z,1012.40
2023-07-12T07:26:01.648Z,1012.34
2023-07-12T07:31:03.879Z,1012.24
2023-07-12T07:36:03.918Z,1012.26
2023-07-12T07:41:02.959Z,1012.32
2023-07-12T07:46:05.037Z,1012.44
2023-07-12T07:51:07.020Z,1012.55
2023-07-12T07:56:04.118Z,1012.41
2023-07-12T08:01:05.173Z,1012.21
2023-07-12T08:06:06.426Z,1012.15
2023-07-12T08:11:08.268Z,1012.15
2023-07-12T08:16:07.534Z,1012.15
2023-07-12T08:21:09.008Z,1012.23
2023-07-12T08:26:09.314Z,1012.41
2023-07-12T08:31:09.520Z,1012.47
2023-07-12T08:36:08.648Z,1012.50
2023-07-12T08:41:10.844Z,1012.47
2023-07-12T08:46:11.948Z,1012.39
2023-07-12T08:51:11.117Z,1012.15
2023-07-12T08:56:13.118Z,1012.13
2023-07-12T09:01:12.525Z,1012.06
2023-07-12T09:06:12.865Z,1011.95
2023-07-12T09:11:11.895Z,1012.07
2023-07-12T09:16:13.969Z,1012.00
2023-07-12T09:21:13.994Z,1011.86
2023-07-12T09:26:13.114Z,1011.71
2023-07-12T09:31:14.223Z,1011.58
2023-07-12T09:36:16.255Z,1011.60
2023-07-12T09:41:15.321Z,1011.81
2023-07-12T09:46:16.425Z,1011.84
2023-07-12T09:51:18.617Z,1011.89
2023-07-12T09:56:17.693Z,1012.06
2023-07-12T10:01:18.708Z,1012.19
2023-07-12T10:06:20.876Z,1012.17
2023-07-12T10:11:21.882Z,1012.39
2023-07-12T10:16:20.975Z,1013.21
2023-07-12T10:21:23.041Z,1013.21
2023-07-12T10:26:22.095Z,1012.25
2023-07-12T10:31:23.264Z,1012.15
2023-07-12T10:36:25.342Z,1012.29
2023-07-12T10:41:24.455Z,1012.51
2023-07-12T10:46:25.535Z,1012.50
2023-07-12T10:51:26.645Z,1012.82
2023-07-12T10:56:28.704Z,1013.16
2023-07-12T11:01:27.832Z,1013.05
2023-07-12T11:06:27.970Z,1012.89
2023-07-12T11:11:30.073Z,1012.72
2023-07-12T11:16:30.217Z,1012.29
2023-07-12T11:21:30.268Z,1012.26
2023-07-12T11:26:29.311Z,1012.30
2023-07-12T11:31:46.572Z,1012.45
2023-07-12T11:36:31.591Z,1012.29
2023-07-12T11:41:32.623Z,1012.35
2023-07-12T11:46:34.854Z,1012.66
2023-07-12T11:51:34.888Z,1012.87
2023-07-12T11:56:34.961Z,1012.93
2023-07-12T12:01:34.070Z,1012.91
2023-07-12T12:06:35.058Z,1013.02
2023-07-12T12:11:36.176Z,1012.62
2023-07-12T12:16:37.206Z,1012.24
2023-07-12T12:21:38.408Z,1012.16
2023-07-12T12:26:40.659Z,1012.47
2023-07-12T12:31:40.700Z,1012.54
2023-07-12T12:36:39.804Z,1012.97
2023-07-12T12:41:40.936Z,1012.59
2023-07-12T12:58:06.755Z,1013.39
2023-07-12T13:04:17.257Z,1013.31
2023-07-12T13:06:44.486Z,1012.70
2023-07-12T13:12:49.792Z,1013.01
2023-07-12T13:21:46.868Z,1012.86
2023-07-12T13:26:47.991Z,1012.87
2023-07-12T13:31:47.134Z,1012.59
2023-07-12T13:36:48.188Z,1012.55
2023-07-12T13:46:50.327Z,1012.31
2023-07-12T13:51:49.344Z,1012.22
2023-07-12T13:56:52.736Z,1012.34
2023-07-12T14:11:50.992Z,1012.16
2023-07-12T14:16:50.026Z,1012.01
2023-07-12T14:21:51.258Z,1012.04
2023-07-12T14:26:54.313Z,1012.12
2023-07-12T14:31:53.393Z,1012.20
2023-07-12T14:36:54.433Z,1012.36
2023-07-12T14:41:56.648Z,1012.31
2023-07-12T14:46:55.764Z,1012.40
2023-07-12T14:52:09.495Z,1012.53
2023-07-12T14:57:12.522Z,1012.52
2023-07-12T15:02:00.119Z,1012.58
2023-07-12T15:06:59.250Z,1012.48
2023-07-12T15:12:02.570Z,1012.75
2023-07-12T15:17:00.200Z,1013.11
2023-07-12T15:22:01.465Z,1012.84
2023-07-12T15:27:03.603Z,1012.50
2023-07-12T15:32:02.691Z,1012.39
2023-07-12T15:37:04.925Z,1012.57
2023-07-12T15:42:04.125Z,1012.84
2023-07-12T15:47:05.253Z,1012.77
2023-07-12T15:52:08.352Z,1012.10
2023-07-12T15:57:09.503Z,1012.18
2023-07-12T16:02:08.852Z,1012.19
2023-07-12T16:07:11.305Z,1012.10
2023-07-12T16:12:10.831Z,1012.11
2023-07-12T16:17:11.441Z,1012.07
2023-07-12T16:22:10.947Z,1011.97
2023-07-12T16:27:11.433Z,1012.40
2023-07-12T16:32:12.361Z,1012.63
2023-07-12T16:37:11.782Z,1012.86
2023-07-12T16:42:11.423Z,1012.46
2023-07-12T16:47:11.005Z,1012.63
2023-07-12T16:52:12.612Z,1012.61
2023-07-12T16:57:16.050Z,1012.63
2023-07-12T17:02:12.722Z,1011.89
2023-07-12T17:07:13.336Z,1011.07
2023-07-12T17:12:12.760Z,1011.22
2023-07-12T17:17:12.199Z,1011.60
2023-07-12T17:22:13.732Z,1011.53
2023-07-12T17:27:14.851Z,1011.61
2023-07-12T17:32:16.345Z,1011.62
2023-07-12T17:37:13.892Z,1011.50
2023-07-12T17:42:14.394Z,1011.54
2023-07-12T17:47:13.893Z,1012.56
2023-07-12T17:52:14.364Z,1013.07
2023-07-12T17:57:14.963Z,1013.26
2023-07-12T18:02:14.593Z,1012.55
2023-07-12T18:07:14.197Z,1012.75
2023-07-12T18:12:13.740Z,1013.42
2023-07-12T18:17:13.423Z,1013.03
2023-07-12T18:22:13.041Z,1013.39
2023-07-12T18:27:13.607Z,1013.76
2023-07-12T18:32:13.190Z,1012.71
2023-07-12T18:37:14.779Z,1012.59
2023-07-12T18:42:13.371Z,1012.28
2023-07-12T18:47:12.957Z,1012.62
2023-07-12T18:52:12.558Z,1012.91
2023-07-12T18:57:12.117Z,1013.13
2023-07-12T19:02:11.672Z,1013.06
2023-07-12T19:07:11.290Z,1012.75
2023-07-12T19:12:11.957Z,1012.94
2023-07-12T19:17:12.628Z,1013.09
2023-07-12T19:22:12.291Z,1013.65
2023-07-12T19:27:14.901Z,1013.72
2023-07-12T19:32:13.813Z,1013.32
2023-07-12T19:37:13.372Z,1013.21
2023-07-12T19:42:14.090Z,1012.91
2023-07-12T19:47:14.774Z,1012.66
2023-07-12T19:52:15.409Z,1012.31
2023-07-12T19:57:14.978Z,1012.49
2023-07-12T20:02:16.010Z,1012.84
2023-07-12T20:07:16.567Z,1012.87
2023-07-12T20:12:16.146Z,1012.89
2023-07-12T20:17:15.930Z,1013.18
2023-07-12T20:22:16.546Z,1013.59
2023-07-12T20:27:16.075Z,1013.80
2023-07-12T20:32:17.043Z,1013.56
2023-07-12T20:37:16.731Z,1013.71
2023-07-12T20:42:16.764Z,1013.67
2023-07-12T20:47:17.271Z,1013.80
2023-07-12T20:52:16.743Z,1014.07
2023-07-12T20:57:18.259Z,1014.73
2023-07-12T21:02:17.499Z,1015.23
2023-07-12T21:07:19.589Z,1014.92
2023-07-12T21:12:18.665Z,1014.46
2023-07-12T21:17:19.813Z,1014.39
2023-07-12T21:22:20.946Z,1014.33
2023-07-12T21:27:21.054Z,1014.41
2023-07-12T21:32:22.300Z,1014.19
2023-07-12T21:37:24.359Z,1014.32
2023-07-12T21:42:23.454Z,1014.79
2023-07-12T21:47:25.544Z,1015.27
2023-07-12T21:52:24.689Z,1015.19
2023-07-12T21:57:25.804Z,1014.97
2023-07-12T22:02:27.980Z,1014.90
2023-07-12T22:07:27.055Z,1015.09
2023-07-12T22:12:31.339Z,1015.24
2023-07-12T22:17:28.577Z,1015.36
2023-07-12T22:22:30.375Z,1015.57
2023-07-12T22:27:29.455Z,1015.57
2023-07-12T22:32:30.663Z,1016.04
2023-07-12T22:37:31.736Z,1016.35
2023-07-12T22:42:32.807Z,1016.15
2023-07-12T22:47:33.916Z,1015.72
2023-07-12T22:52:35.002Z,1015.51
2023-07-12T22:57:36.066Z,1015.16
2023-07-12T23:02:38.520Z,1014.49
2023-07-12T23:07:37.697Z,1014.07
2023-07-12T23:12:38.864Z,1014.73
2023-07-12T23:17:40.929Z,1014.58
2023-07-12T23:22:40.167Z,1014.77
2023-07-12T23:27:41.152Z,1014.66
2023-07-12T23:32:43.205Z,1014.52
2023-07-12T23:37:42.237Z,1014.24
2023-07-12T23:42:43.267Z,1014.36
2023-07-12T23:47:45.320Z,1014.50
2023-07-12T23:52:45.387Z,1014.59
2023-07-12T23:57:44.482Z,1014.45
